Time;durP1;ratioP1;P1;durP2;ratioP2;P2;SDS_P1;SDS_P2;PMS_P1;PMS_P2;Temp;Humidity;BMP_temperature;BMP_pressure;BME280_temperature;BME280_humidity;BME280_pressure;Samples;Min_cycle;Max_cycle;Signal;HPM_P1;HPM_P2
2023/10/23 00:01:48;;;;;;;2.03;0.80;;;9.30;99.90;;;;;;5074834;28;20445;-80
2023/10/23 00:04:15;;;;;;;0.77;0.60;;;9.30;99.90;;;;;;5074397;28;20978;-80
2023/10/23 00:06:41;;;;;;;0.43;0.43;;;9.20;99.90;;;;;;5074675;28;20449;-80
2023/10/23 00:09:08;;;;;;;1.67;0.57;;;9.20;99.90;;;;;;5074724;28;20445;-80
2023/10/23 00:11:35;;;;;;;0.50;0.50;;;9.20;99.90;;;;;;5074643;28;20476;-79
2023/10/23 00:14:02;;;;;;;1.00;0.70;;;9.20;99.90;;;;;;5074504;28;20467;-79
2023/10/23 00:16:29;;;;;;;1.07;1.00;;;9.20;99.90;;;;;;5074170;28;21066;-79
2023/10/23 00:18:57;;;;;;;0.60;0.60;;;9.20;99.90;;;;;;5074506;28;20448;-80
2023/10/23 00:21:23;;;;;;;0.40;0.40;;;9.20;99.90;;;;;;5074430;28;20448;-80
2023/10/23 00:23:50;;;;;;;0.73;0.73;;;9.20;99.90;;;;;;5073991;28;20464;-80
2023/10/23 00:26:17;;;;;;;1.93;0.53;;;9.10;99.90;;;;;;5073993;28;20861;-81
2023/10/23 00:28:44;;;;;;;1.07;0.70;;;9.00;99.90;;;;;;5074222;28;20441;-80
2023/10/23 00:31:11;;;;;;;0.80;0.50;;;9.00;99.90;;;;;;5073947;28;20440;-80
2023/10/23 00:33:38;;;;;;;0.80;0.60;;;9.00;99.90;;;;;;5073657;28;20472;-80
2023/10/23 00:36:07;;;;;;;1.00;0.73;;;9.00;99.90;;;;;;5074051;28;20488;-80
2023/10/23 00:38:33;;;;;;;1.03;0.60;;;9.00;99.90;;;;;;5074094;28;20452;-80
2023/10/23 00:41:00;;;;;;;1.90;0.70;;;9.00;99.90;;;;;;5074182;28;20451;-80
2023/10/23 00:43:28;;;;;;;1.70;0.70;;;8.90;99.90;;;;;;5073949;28;20468;-80
2023/10/23 00:45:58;;;;;;;1.27;0.90;;;9.00;99.90;;;;;;5073973;28;20459;-80
2023/10/23 00:48:26;;;;;;;1.10;1.10;;;8.90;99.90;;;;;;5073621;28;20965;-80
2023/10/23 00:50:56;;;;;;;4.43;0.53;;;8.90;99.90;;;;;;5073795;28;20489;-80
2023/10/23 00:53:25;;;;;;;0.87;0.87;;;8.80;99.90;;;;;;5073457;28;20468;-80
2023/10/23 00:55:54;;;;;;;0.83;0.83;;;8.80;99.90;;;;;;5073706;28;20545;-80
2023/10/23 00:58:25;;;;;;;0.73;0.60;;;8.80;99.90;;;;;;5073454;28;21003;-80
2023/10/23 01:00:51;;;;;;;0.60;0.60;;;8.70;99.90;;;;;;5073784;28;20425;-80
2023/10/23 01:03:18;;;;;;;0.70;0.53;;;8.70;99.90;;;;;;5073636;28;20472;-80
2023/10/23 01:05:45;;;;;;;0.87;0.87;;;8.70;99.90;;;;;;5073341;28;20937;-80
2023/10/23 01:08:12;;;;;;;0.80;0.80;;;8.70;99.90;;;;;;5073300;28;20981;-80
2023/10/23 01:10:41;;;;;;;1.07;0.90;;;8.70;99.90;;;;;;5074129;28;20448;-80
2023/10/23 01:13:08;;;;;;;0.47;0.47;;;8.70;99.90;;;;;;5073164;28;20977;-80
2023/10/23 01:15:35;;;;;;;0.40;0.40;;;8.70;99.90;;;;;;5073537;28;20445;-80
2023/10/23 01:18:02;;;;;;;0.80;0.50;;;8.60;99.90;;;;;;5073528;28;20437;-80
2023/10/23 01:20:29;;;;;;;1.00;0.90;;;8.60;99.90;;;;;;5073439;28;20448;-80
2023/10/23 01:22:58;;;;;;;2.10;0.60;;;8.60;99.90;;;;;;5073347;28;20468;-80
2023/10/23 01:25:27;;;;;;;0.80;0.80;;;8.50;99.90;;;;;;5073058;28;20445;-80
2023/10/23 01:27:54;;;;;;;2.50;0.60;;;8.50;99.90;;;;;;5073385;28;20803;-80
2023/10/23 01:30:22;;;;;;;0.83;0.70;;;8.50;99.90;;;;;;5073044;28;20447;-80
2023/10/23 01:32:48;;;;;;;0.50;0.50;;;8.50;99.90;;;;;;5073245;28;20465;-80
2023/10/23 01:35:15;;;;;;;7.20;0.83;;;8.50;99.90;;;;;;5073298;28;20449;-80
2023/10/23 01:37:42;;;;;;;2.67;0.93;;;8.60;99.90;;;;;;5073196;28;20484;-80
2023/10/23 01:40:10;;;;;;;8.53;1.07;;;8.50;99.90;;;;;;5073241;28;20437;-80
2023/10/23 01:42:38;;;;;;;1.60;0.70;;;8.50;99.90;;;;;;5073154;28;20531;-80
2023/10/23 01:45:06;;;;;;;1.63;0.70;;;8.40;99.90;;;;;;5073185;28;20444;-80
2023/10/23 01:47:33;;;;;;;1.10;0.60;;;8.40;99.90;;;;;;5076780;28;20441;-80
2023/10/23 01:49:59;;;;;;;1.60;0.80;;;8.40;99.90;;;;;;5077039;28;20445;-80
2023/10/23 01:52:26;;;;;;;0.93;0.60;;;8.40;99.90;;;;;;5077280;28;20421;-80
2023/10/23 01:54:53;;;;;;;1.53;1.00;;;8.40;99.90;;;;;;5076954;28;20456;-80
2023/10/23 01:57:20;;;;;;;1.33;1.00;;;8.40;99.90;;;;;;5077142;28;20487;-80
2023/10/23 01:59:48;;;;;;;0.77;0.63;;;8.40;99.90;;;;;;5076852;28;20448;-80
2023/10/23 02:02:15;;;;;;;0.70;0.70;;;8.40;99.90;;;;;;5077159;28;20445;-80
2023/10/23 02:04:42;;;;;;;0.87;0.83;;;8.30;99.90;;;;;;5077012;28;20460;-80
2023/10/23 02:07:09;;;;;;;3.03;1.27;;;8.20;99.90;;;;;;5077070;28;20437;-80
2023/10/23 02:09:35;;;;;;;0.73;0.73;;;8.20;99.90;;;;;;5076960;28;20452;-80
2023/10/23 02:12:03;;;;;;;2.57;0.80;;;8.30;99.90;;;;;;5076907;28;20852;-80
2023/10/23 02:14:30;;;;;;;0.90;0.90;;;8.20;99.90;;;;;;5076838;28;20472;-80
2023/10/23 02:16:58;;;;;;;0.80;0.80;;;8.20;99.90;;;;;;5076788;28;20473;-80
2023/10/23 02:19:25;;;;;;;1.53;1.13;;;8.20;99.90;;;;;;5076752;28;20456;-80
2023/10/23 02:21:52;;;;;;;1.13;0.77;;;8.20;99.90;;;;;;5076406;28;20941;-80
2023/10/23 02:24:19;;;;;;;1.00;0.87;;;8.30;99.90;;;;;;5076632;28;20461;-80
2023/10/23 02:26:46;;;;;;;0.70;0.60;;;8.80;99.90;;;;;;5076626;28;20547;-79
2023/10/23 02:29:13;;;;;;;0.60;0.60;;;8.10;99.90;;;;;;5076583;28;20535;-80
2023/10/23 02:31:40;;;;;;;5.80;0.90;;;8.10;99.90;;;;;;5076537;28;20445;-80
2023/10/23 02:34:08;;;;;;;1.10;0.93;;;8.10;99.90;;;;;;5076433;28;20551;-80
2023/10/23 02:36:35;;;;;;;1.57;0.70;;;8.00;99.90;;;;;;5076319;28;20491;-79
2023/10/23 02:39:01;;;;;;;0.93;0.70;;;8.00;99.90;;;;;;5076391;28;20448;-80
2023/10/23 02:41:29;;;;;;;2.77;1.47;;;8.00;99.90;;;;;;5076038;28;20964;-80
2023/10/23 02:43:56;;;;;;;2.83;0.70;;;8.00;99.90;;;;;;5075921;28;21072;-79
2023/10/23 02:46:23;;;;;;;1.40;1.10;;;8.00;99.90;;;;;;5076254;28;20445;-80
2023/10/23 02:48:50;;;;;;;0.83;0.70;;;8.00;99.90;;;;;;5076225;28;20444;-80
2023/10/23 02:51:18;;;;;;;1.10;0.90;;;8.00;99.90;;;;;;5075958;28;20516;-80
2023/10/23 02:53:45;;;;;;;0.80;0.60;;;8.00;99.90;;;;;;5076057;28;20464;-79
2023/10/23 02:56:12;;;;;;;1.00;1.00;;;8.00;99.90;;;;;;5075717;28;20445;-79
2023/10/23 02:58:39;;;;;;;1.00;0.83;;;8.10;99.90;;;;;;5075679;28;20449;-80
2023/10/23 03:01:14;;;;;;;2.30;0.90;;;8.10;99.90;;;;;;5075686;28;20448;-79
2023/10/23 03:03:41;;;;;;;2.03;1.00;;;8.10;99.90;;;;;;5076016;28;20465;-79
2023/10/23 03:06:08;;;;;;;2.30;0.70;;;8.10;99.90;;;;;;5075963;28;20443;-80
2023/10/23 03:08:37;;;;;;;1.00;1.00;;;8.40;99.90;;;;;;5075562;28;20933;-80
2023/10/23 03:11:03;;;;;;;1.47;0.80;;;8.00;99.90;;;;;;5075780;28;20551;-79
2023/10/23 03:13:30;;;;;;;0.77;0.77;;;8.00;99.90;;;;;;5075738;28;20472;-80
2023/10/23 03:15:57;;;;;;;0.90;0.83;;;8.00;99.90;;;;;;5075430;28;20453;-80
2023/10/23 03:18:24;;;;;;;1.27;1.07;;;8.00;99.90;;;;;;5075636;28;20492;-80
2023/10/23 03:20:50;;;;;;;0.50;0.50;;;8.00;99.90;;;;;;5075665;28;20449;-79
2023/10/23 03:23:17;;;;;;;1.13;0.80;;;8.00;99.90;;;;;;5075546;28;20464;-80
2023/10/23 03:25:45;;;;;;;1.33;0.97;;;8.00;99.90;;;;;;5075575;28;20448;-79
2023/10/23 03:28:12;;;;;;;3.17;1.00;;;8.00;99.90;;;;;;5075512;28;20863;-80
2023/10/23 03:30:39;;;;;;;0.87;0.83;;;7.90;99.90;;;;;;5075462;28;20449;-80
2023/10/23 03:33:06;;;;;;;4.37;0.70;;;7.90;99.90;;;;;;5075378;28;20469;-79
2023/10/23 03:35:34;;;;;;;1.07;0.60;;;7.90;99.90;;;;;;5075325;28;20451;-79
2023/10/23 03:38:01;;;;;;;0.80;0.80;;;7.80;99.90;;;;;;5076084;28;20526;-80
2023/10/23 03:40:28;;;;;;;0.60;0.60;;;7.80;99.90;;;;;;5074967;28;20813;-80
2023/10/23 03:42:56;;;;;;;0.53;0.53;;;7.70;99.90;;;;;;5075159;28;20464;-80
2023/10/23 03:45:23;;;;;;;0.90;0.60;;;7.70;99.90;;;;;;5075175;28;20508;-80
2023/10/23 03:47:49;;;;;;;4.10;1.00;;;7.70;99.90;;;;;;5075122;28;20448;-80
2023/10/23 03:50:16;;;;;;;2.77;1.53;;;7.70;99.90;;;;;;5074822;28;20476;-80
2023/10/23 03:52:43;;;;;;;0.83;0.70;;;7.70;99.90;;;;;;5075032;28;20436;-80
2023/10/23 03:55:10;;;;;;;1.50;1.07;;;7.70;99.90;;;;;;5074687;28;20946;-80
2023/10/23 03:57:37;;;;;;;5.90;0.83;;;7.60;99.90;;;;;;5074906;28;20481;-80
2023/10/23 04:00:06;;;;;;;4.93;1.37;;;7.60;99.90;;;;;;5074886;28;20444;-80
2023/10/23 04:02:33;;;;;;;1.53;1.20;;;7.60;99.90;;;;;;5074780;28;20457;-80
2023/10/23 04:05:00;;;;;;;1.17;0.60;;;7.60;99.90;;;;;;5074780;28;20449;-80
2023/10/23 04:07:27;;;;;;;2.30;0.90;;;7.60;99.90;;;;;;5074726;28;20468;-80
2023/10/23 04:09:53;;;;;;;3.20;1.03;;;7.60;99.90;;;;;;5073867;28;20456;-80
2023/10/23 04:12:20;;;;;;;1.17;1.13;;;7.60;99.90;;;;;;5074631;28;20448;-80
2023/10/23 04:14:47;;;;;;;0.70;0.70;;;7.60;99.90;;;;;;5074245;28;20825;-80
2023/10/23 04:17:15;;;;;;;0.67;0.63;;;7.60;99.90;;;;;;5074147;28;20853;-80
2023/10/23 04:19:42;;;;;;;1.20;1.10;;;7.50;99.90;;;;;;5074457;28;20448;-80
2023/10/23 04:22:08;;;;;;;0.50;0.50;;;7.60;99.90;;;;;;5074137;28;20884;-80
2023/10/23 04:24:35;;;;;;;1.83;0.90;;;7.50;99.90;;;;;;5074321;28;20476;-80
2023/10/23 04:27:02;;;;;;;1.13;0.60;;;7.60;99.90;;;;;;5074046;28;20433;-80
2023/10/23 04:29:28;;;;;;;0.90;0.90;;;7.60;99.90;;;;;;5074149;28;20460;-80
2023/10/23 04:31:55;;;;;;;3.53;1.17;;;7.60;99.90;;;;;;5074258;28;20449;-80
2023/10/23 04:34:23;;;;;;;0.70;0.70;;;7.70;99.90;;;;;;5073815;28;20465;-80
2023/10/23 04:36:50;;;;;;;1.60;0.83;;;7.60;99.90;;;;;;5074043;28;20445;-80
2023/10/23 04:39:17;;;;;;;1.83;0.83;;;7.60;99.90;;;;;;5074137;28;20481;-80
2023/10/23 04:41:43;;;;;;;1.10;1.00;;;7.60;99.90;;;;;;5074049;28;20448;-80
2023/10/23 04:44:10;;;;;;;1.70;0.60;;;7.60;99.90;;;;;;5073585;28;20469;-80
2023/10/23 04:46:37;;;;;;;1.27;0.90;;;7.50;99.90;;;;;;5073967;28;20445;-80
2023/10/23 04:49:03;;;;;;;0.50;0.50;;;7.50;99.90;;;;;;5073620;28;20429;-80
2023/10/23 04:51:33;;;;;;;1.97;1.83;;;7.50;99.90;;;;;;5073460;28;20468;-80
2023/10/23 04:54:00;;;;;;;2.30;0.60;;;7.50;99.90;;;;;;5073792;28;20464;-80
2023/10/23 04:56:28;;;;;;;0.70;0.70;;;7.40;99.90;;;;;;5073799;28;20528;-80
2023/10/23 04:58:55;;;;;;;0.53;0.40;;;7.50;99.90;;;;;;5073686;28;20508;-80
2023/10/23 05:01:22;;;;;;;0.70;0.70;;;7.50;99.90;;;;;;5073708;28;20452;-80
2023/10/23 05:03:49;;;;;;;0.57;0.57;;;7.50;99.90;;;;;;5073607;28;20477;-80
2023/10/23 05:06:15;;;;;;;0.70;0.50;;;7.40;99.90;;;;;;5073631;28;20810;-80
2023/10/23 05:08:44;;;;;;;1.00;0.90;;;7.50;99.90;;;;;;5073265;28;20444;-80
2023/10/23 05:11:12;;;;;;;1.10;0.70;;;7.40;99.90;;;;;;5073603;28;20514;-80
2023/10/23 05:13:39;;;;;;;1.10;0.60;;;7.40;99.90;;;;;;5073485;28;20538;-80
2023/10/23 05:16:06;;;;;;;1.63;1.17;;;7.50;99.90;;;;;;5073551;28;20444;-80
2023/10/23 05:18:33;;;;;;;0.50;0.50;;;7.50;99.90;;;;;;5073407;28;20575;-80
2023/10/23 05:21:06;;;;;;;1.63;0.87;;;7.50;99.90;;;;;;5072996;28;20840;-80
2023/10/23 05:23:32;;;;;;;0.60;0.57;;;7.50;99.90;;;;;;5073416;28;20461;-80
2023/10/23 05:26:01;;;;;;;0.50;0.50;;;7.40;99.90;;;;;;5073132;28;20452;-80
2023/10/23 05:28:27;;;;;;;1.03;0.50;;;7.30;99.90;;;;;;5073366;28;20445;-80
2023/10/23 05:30:54;;;;;;;2.83;1.13;;;7.30;99.90;;;;;;5073437;28;20437;-80
2023/10/23 05:33:21;;;;;;;1.33;0.50;;;7.20;99.90;;;;;;5074032;28;20475;-80
2023/10/23 05:35:48;;;;;;;0.70;0.70;;;7.30;99.90;;;;;;5073335;28;20807;-80
2023/10/23 05:38:14;;;;;;;1.70;0.67;;;7.20;99.90;;;;;;5073177;28;20492;-80
2023/10/23 05:40:41;;;;;;;0.70;0.60;;;7.20;99.90;;;;;;5073274;28;20451;-80
2023/10/23 05:43:11;;;;;;;5.93;0.60;;;7.20;99.90;;;;;;5073186;28;20472;-80
2023/10/23 05:45:38;;;;;;;0.60;0.60;;;7.30;99.90;;;;;;5072875;28;20452;-80
2023/10/23 05:48:04;;;;;;;4.43;0.67;;;7.30;99.90;;;;;;5073268;28;20445;-80
2023/10/23 05:50:31;;;;;;;0.50;0.40;;;7.30;99.90;;;;;;5072864;28;20481;-80
2023/10/23 05:52:58;;;;;;;0.80;0.63;;;7.30;99.90;;;;;;5073128;28;20465;-80
2023/10/23 05:55:25;;;;;;;0.80;0.43;;;7.30;99.90;;;;;;5073040;28;20444;-80
2023/10/23 05:57:52;;;;;;;0.50;0.50;;;7.30;99.90;;;;;;5072742;28;20484;-80
2023/10/23 06:00:20;;;;;;;0.50;0.50;;;7.30;99.90;;;;;;5073243;28;20452;-80
2023/10/23 06:02:47;;;;;;;5.73;0.60;;;7.30;99.90;;;;;;5073034;28;20465;-80
2023/10/23 06:05:14;;;;;;;0.60;0.60;;;7.30;99.90;;;;;;5073011;28;20476;-80
2023/10/23 06:07:41;;;;;;;0.60;0.50;;;7.40;99.90;;;;;;5072991;28;20433;-80
2023/10/23 06:10:08;;;;;;;0.60;0.43;;;7.30;99.90;;;;;;5072994;28;20440;-80
2023/10/23 06:12:34;;;;;;;1.00;0.87;;;7.20;99.90;;;;;;5072572;28;20449;-80
2023/10/23 06:15:03;;;;;;;1.17;1.10;;;7.30;99.90;;;;;;5072898;28;20456;-81
2023/10/23 06:17:31;;;;;;;1.37;0.90;;;7.30;99.90;;;;;;5072499;28;20459;-80
2023/10/23 06:19:58;;;;;;;1.67;0.40;;;7.30;99.90;;;;;;5072557;28;21004;-80
2023/10/23 06:22:24;;;;;;;3.47;0.60;;;7.30;99.90;;;;;;5072851;28;20453;-80
2023/10/23 06:24:51;;;;;;;1.47;0.80;;;7.20;99.90;;;;;;5072840;28;20447;-80
2023/10/23 06:27:18;;;;;;;0.70;0.53;;;7.30;99.90;;;;;;5072835;28;20436;-80
2023/10/23 06:29:44;;;;;;;0.40;0.40;;;7.30;99.90;;;;;;5072441;28;20518;-80
2023/10/23 06:32:13;;;;;;;2.30;0.83;;;7.40;99.90;;;;;;5073924;28;20456;-80
2023/10/23 06:34:41;;;;;;;0.40;0.40;;;7.40;99.90;;;;;;5076444;28;20469;-80
2023/10/23 06:37:08;;;;;;;0.50;0.50;;;7.50;99.90;;;;;;5076425;28;20424;-80
2023/10/23 06:39:35;;;;;;;0.70;0.63;;;7.60;99.90;;;;;;5076349;28;20484;-80
2023/10/23 06:42:02;;;;;;;0.90;0.67;;;7.60;99.90;;;;;;5076403;28;20440;-80
2023/10/23 06:44:29;;;;;;;1.57;1.47;;;7.70;99.90;;;;;;5075959;28;20469;-80
2023/10/23 06:46:56;;;;;;;0.90;0.60;;;7.80;99.90;;;;;;5076283;28;20475;-80
2023/10/23 06:49:22;;;;;;;0.87;0.60;;;7.90;99.90;;;;;;5075902;28;20827;-80
2023/10/23 06:51:50;;;;;;;3.37;0.87;;;7.90;99.90;;;;;;5075757;28;20487;-80
2023/10/23 06:54:18;;;;;;;2.50;0.70;;;7.90;99.90;;;;;;5076086;28;20465;-80
2023/10/23 06:56:45;;;;;;;0.90;0.53;;;7.90;99.90;;;;;;5076080;28;20444;-80
2023/10/23 06:59:12;;;;;;;0.60;0.60;;;8.10;99.90;;;;;;5075613;28;20867;-80
2023/10/23 07:01:39;;;;;;;0.53;0.50;;;8.00;99.90;;;;;;5075962;28;20451;-80
2023/10/23 07:04:05;;;;;;;0.87;0.60;;;8.00;99.90;;;;;;5075850;28;20493;-80
2023/10/23 07:06:33;;;;;;;0.60;0.60;;;8.10;99.90;;;;;;5075634;28;21025;-80
2023/10/23 07:09:01;;;;;;;2.33;1.13;;;8.10;99.90;;;;;;5075900;28;20444;-80
2023/10/23 07:11:28;;;;;;;0.50;0.50;;;8.20;99.90;;;;;;5075816;28;20441;-80
2023/10/23 07:13:55;;;;;;;26.23;1.43;;;8.20;99.90;;;;;;5075717;28;20461;-80
2023/10/23 07:16:21;;;;;;;1.43;0.70;;;8.80;99.90;;;;;;5075456;28;20445;-80
2023/10/23 07:18:48;;;;;;;0.60;0.57;;;8.40;99.90;;;;;;5076457;28;20472;-80
2023/10/23 07:21:15;;;;;;;0.80;0.80;;;8.40;99.90;;;;;;5075613;28;20448;-80
2023/10/23 07:23:41;;;;;;;0.50;0.50;;;8.50;99.90;;;;;;5075547;28;20475;-80
2023/10/23 07:26:12;;;;;;;1.37;0.60;;;8.60;99.90;;;;;;5075572;28;20448;-80
2023/10/23 07:28:40;;;;;;;1.63;1.53;;;8.70;99.90;;;;;;5075268;28;20425;-80
2023/10/23 07:31:07;;;;;;;1.23;0.97;;;8.80;99.90;;;;;;5075439;28;20514;-80
2023/10/23 07:33:34;;;;;;;0.93;0.93;;;8.80;99.90;;;;;;5075359;28;20555;-83
2023/10/23 07:36:03;;;;;;;0.80;0.80;;;9.00;99.90;;;;;;5075456;28;20436;-83
2023/10/23 07:38:30;;;;;;;0.80;0.77;;;8.90;99.90;;;;;;5075334;28;20484;-83
2023/10/23 07:40:57;;;;;;;1.50;1.10;;;9.00;99.90;;;;;;5075821;28;20887;-83
2023/10/23 07:43:26;;;;;;;1.30;0.70;;;9.00;99.90;;;;;;5074159;28;20468;-83
2023/10/23 07:45:53;;;;;;;0.53;0.53;;;9.10;99.90;;;;;;5075321;28;20452;-83
2023/10/23 07:48:21;;;;;;;2.57;1.10;;;9.10;99.90;;;;;;5075457;28;20421;-83
2023/10/23 07:50:48;;;;;;;1.07;0.97;;;9.10;99.90;;;;;;5074708;28;20481;-83
2023/10/23 07:53:14;;;;;;;1.93;1.10;;;9.20;99.90;;;;;;5075021;28;20461;-83
2023/10/23 07:55:41;;;;;;;0.87;0.80;;;9.20;99.90;;;;;;5074716;28;20980;-83
2023/10/23 07:58:08;;;;;;;1.00;0.80;;;9.20;99.90;;;;;;5074880;28;20491;-83
2023/10/23 08:00:36;;;;;;;0.70;0.70;;;9.20;99.90;;;;;;5075243;28;20445;-83
2023/10/23 08:03:03;;;;;;;4.90;0.90;;;9.30;99.90;;;;;;5074828;28;20468;-83
2023/10/23 08:05:29;;;;;;;1.10;0.90;;;9.40;99.90;;;;;;5074776;28;20881;-83
2023/10/23 08:07:57;;;;;;;2.50;1.20;;;9.30;99.90;;;;;;5074773;28;20441;-83
2023/10/23 08:10:24;;;;;;;1.23;1.00;;;9.40;99.90;;;;;;5075554;28;20445;-83
2023/10/23 08:12:50;;;;;;;4.00;0.90;;;9.40;99.90;;;;;;5074291;28;20973;-83
2023/10/23 08:15:17;;;;;;;1.80;1.00;;;9.50;99.90;;;;;;5074325;28;20456;-83
2023/10/23 08:17:45;;;;;;;1.73;1.50;;;9.50;99.90;;;;;;5075103;28;20630;-83
2023/10/23 08:20:12;;;;;;;0.87;0.87;;;9.60;99.90;;;;;;5074456;28;20484;-83
2023/10/23 08:22:39;;;;;;;4.00;0.93;;;9.70;99.90;;;;;;5074370;28;20449;-83
2023/10/23 08:25:07;;;;;;;0.63;0.50;;;9.80;99.90;;;;;;5074541;28;20451;-83
2023/10/23 08:27:33;;;;;;;1.00;0.70;;;9.80;99.90;;;;;;5074372;28;20440;-83
2023/10/23 08:30:00;;;;;;;1.00;0.77;;;9.90;99.90;;;;;;5074363;28;20445;-83
2023/10/23 08:32:27;;;;;;;0.67;0.67;;;10.00;99.90;;;;;;5074186;28;20452;-83
2023/10/23 08:34:55;;;;;;;1.23;0.60;;;10.20;99.90;;;;;;5074208;28;20453;-83
2023/10/23 08:37:22;;;;;;;1.90;0.63;;;10.50;99.90;;;;;;5074188;28;20441;-83
2023/10/23 08:39:49;;;;;;;0.60;0.60;;;10.50;99.90;;;;;;5073728;28;20480;-82
2023/10/23 08:42:16;;;;;;;0.60;0.60;;;10.60;99.90;;;;;;5074095;28;20803;-83
2023/10/23 08:44:43;;;;;;;8.80;0.70;;;10.70;99.90;;;;;;5073944;28;20522;-83
2023/10/23 08:47:10;;;;;;;3.50;1.30;;;10.90;99.90;;;;;;5074777;28;20449;-83
2023/10/23 08:49:37;;;;;;;13.10;1.10;;;11.00;99.90;;;;;;5073939;28;20449;-83
2023/10/23 08:52:10;;;;;;;0.70;0.70;;;11.00;99.90;;;;;;5073400;28;20475;-83
2023/10/23 08:54:38;;;;;;;1.00;0.70;;;11.10;99.90;;;;;;5073409;28;20473;-83
2023/10/23 08:57:06;;;;;;;0.53;0.53;;;11.10;99.90;;;;;;5073639;28;20460;-82
2023/10/23 08:59:33;;;;;;;0.80;0.80;;;11.00;99.90;;;;;;5073337;28;21001;-83
2023/10/23 09:02:00;;;;;;;2.90;0.80;;;10.90;99.90;;;;;;5073449;28;21013;-83
2023/10/23 09:04:26;;;;;;;0.80;0.80;;;10.90;99.90;;;;;;5073592;28;20480;-83
2023/10/23 09:06:55;;;;;;;5.37;1.40;;;10.90;99.90;;;;;;5073329;28;20822;-83
2023/10/23 09:09:26;;;;;;;3.57;0.80;;;10.90;99.90;;;;;;5073310;28;20441;-83
2023/10/23 09:11:53;;;;;;;2.30;0.90;;;10.90;99.90;;;;;;5073597;28;20440;-83
2023/10/23 09:14:24;;;;;;;0.50;0.50;;;10.90;99.90;;;;;;5073208;28;20990;-83
2023/10/23 09:16:52;;;;;;;1.43;1.10;;;11.00;99.90;;;;;;5074111;28;20771;-83
2023/10/23 09:19:26;;;;;;;1.17;1.00;;;11.00;99.90;;;;;;5073091;28;20856;-83
2023/10/23 09:21:55;;;;;;;0.77;0.70;;;11.10;99.90;;;;;;5073438;28;20445;-83
2023/10/23 09:24:24;;;;;;;1.37;1.27;;;11.20;99.90;;;;;;5073123;28;20518;-83
2023/10/23 09:26:51;;;;;;;2.37;0.70;;;11.30;99.90;;;;;;5073109;28;20441;-83
2023/10/23 09:29:21;;;;;;;2.03;0.70;;;11.30;99.90;;;;;;5073511;28;20460;-83
2023/10/23 09:31:49;;;;;;;1.47;0.60;;;11.40;99.90;;;;;;5073442;28;20428;-83
2023/10/23 09:34:18;;;;;;;0.90;0.60;;;11.50;99.90;;;;;;5073344;28;20551;-83
2023/10/23 09:36:45;;;;;;;0.57;0.57;;;11.50;99.90;;;;;;5073302;28;20455;-83
2023/10/23 09:39:11;;;;;;;0.60;0.60;;;11.50;99.90;;;;;;5072921;28;21004;-83
2023/10/23 09:41:41;;;;;;;1.37;0.63;;;11.70;99.90;;;;;;5073256;28;20452;-83
2023/10/23 09:44:08;;;;;;;0.50;0.50;;;11.60;99.90;;;;;;5073130;28;20473;-83
2023/10/23 09:46:36;;;;;;;0.60;0.40;;;11.50;99.90;;;;;;5073233;28;20436;-83
2023/10/23 09:49:06;;;;;;;1.47;0.70;;;11.50;99.90;;;;;;5073309;28;20451;-83
2023/10/23 09:51:38;;;;;;;0.50;0.50;;;11.40;99.90;;;;;;5072951;28;20891;-83
2023/10/23 09:54:14;;;;;;;3.23;0.90;;;11.40;99.90;;;;;;5072786;28;20973;-83
2023/10/23 09:56:48;;;;;;;0.60;0.60;;;11.50;99.90;;;;;;5073181;28;20420;-82
2023/10/23 09:59:17;;;;;;;0.70;0.70;;;11.50;99.90;;;;;;5073082;28;20476;-83
2023/10/23 10:01:45;;;;;;;0.63;0.60;;;11.60;99.90;;;;;;5073067;28;20925;-83
2023/10/23 10:04:14;;;;;;;3.50;1.37;;;11.60;99.90;;;;;;5073017;28;20469;-83
2023/10/23 10:06:45;;;;;;;2.07;1.53;;;11.60;99.90;;;;;;5073331;28;20445;-83
2023/10/23 10:09:13;;;;;;;1.23;0.90;;;11.60;99.90;;;;;;5077075;28;20421;-83
2023/10/23 10:11:43;;;;;;;0.80;0.80;;;11.80;99.90;;;;;;5076684;28;20455;-83
2023/10/23 10:14:11;;;;;;;1.20;0.50;;;11.90;99.90;;;;;;5076873;28;20518;-83
2023/10/23 10:16:39;;;;;;;0.60;0.60;;;11.90;99.90;;;;;;5076648;28;20428;-83
2023/10/23 10:19:07;;;;;;;1.40;1.00;;;12.10;99.90;;;;;;5076745;28;20491;-83
2023/10/23 10:21:41;;;;;;;1.30;1.20;;;12.00;99.90;;;;;;5076479;28;20432;-83
2023/10/23 10:24:10;;;;;;;1.30;1.20;;;12.10;99.90;;;;;;5076746;28;20518;-83
2023/10/23 10:26:37;;;;;;;4.00;1.37;;;12.10;99.90;;;;;;5076334;28;20956;-83
2023/10/23 10:29:05;;;;;;;1.00;0.93;;;12.20;99.90;;;;;;5076630;28;20441;-83
2023/10/23 10:32:01;;;;;;;3.70;1.73;;;12.20;99.90;;;;;;5076260;28;20440;-83
2023/10/23 10:34:28;;;;;;;2.00;1.20;;;12.20;99.90;;;;;;5076451;28;20472;-83
2023/10/23 10:36:55;;;;;;;7.43;1.57;;;12.30;99.90;;;;;;5076481;28;20457;-83
2023/10/23 10:39:36;;;;;;;3.10;1.73;;;12.30;99.90;;;;;;5076326;28;20503;-82
2023/10/23 10:42:04;;;;;;;1.87;1.40;;;12.40;99.90;;;;;;5076074;28;20940;-83
2023/10/23 10:44:33;;;;;;;1.10;1.00;;;12.40;99.90;;;;;;5076234;28;20560;-82
2023/10/23 10:47:00;;;;;;;1.20;1.03;;;12.40;99.90;;;;;;5076220;28;20455;-82
2023/10/23 10:49:31;;;;;;;4.93;1.30;;;12.40;99.90;;;;;;5075962;28;20828;-83
2023/10/23 10:51:58;;;;;;;1.73;1.00;;;12.50;99.90;;;;;;5075760;28;20477;-82
2023/10/23 10:54:33;;;;;;;1.30;1.20;;;12.40;99.90;;;;;;5075822;28;20472;-82
2023/10/23 10:57:00;;;;;;;1.50;1.40;;;12.50;99.90;;;;;;5075868;28;20409;-82
2023/10/23 10:59:27;;;;;;;1.73;1.13;;;12.40;99.90;;;;;;5075691;28;20579;-82
2023/10/23 11:01:56;;;;;;;1.67;1.20;;;12.50;99.90;;;;;;5075987;28;20441;-82
2023/10/23 11:04:22;;;;;;;2.20;1.43;;;12.50;99.90;;;;;;5075583;28;20473;-82
2023/10/23 11:06:49;;;;;;;1.00;1.00;;;12.50;99.90;;;;;;5075947;28;20453;-83
2023/10/23 11:09:19;;;;;;;2.27;1.40;;;12.60;99.90;;;;;;5075895;28;20823;-83
2023/10/23 11:11:46;;;;;;;1.80;1.00;;;12.70;99.90;;;;;;5075850;28;20449;-83
2023/10/23 11:14:12;;;;;;;2.73;1.60;;;12.70;99.90;;;;;;5075884;28;20476;-82
2023/10/23 11:16:39;;;;;;;1.70;1.60;;;12.70;99.90;;;;;;5075465;28;20449;-83
2023/10/23 11:19:07;;;;;;;1.40;1.30;;;12.70;99.90;;;;;;5075020;28;20452;-82
2023/10/23 11:21:34;;;;;;;1.30;1.20;;;12.80;99.90;;;;;;5075491;28;20445;-83
2023/10/23 11:24:02;;;;;;;1.60;1.47;;;12.70;99.90;;;;;;5075623;28;20473;-83
2023/10/23 11:26:29;;;;;;;2.70;1.70;;;12.80;99.90;;;;;;5075325;28;20463;-83
2023/10/23 11:28:56;;;;;;;2.70;1.40;;;12.80;99.90;;;;;;5075543;28;20457;-83
2023/10/23 11:31:23;;;;;;;1.97;1.00;;;12.90;99.90;;;;;;5075527;28;20458;-82
2023/10/23 11:33:52;;;;;;;1.57;1.00;;;12.90;99.90;;;;;;5075964;28;20962;-83
2023/10/23 11:36:21;;;;;;;1.70;0.83;;;13.00;99.90;;;;;;5075373;28;20445;-83
2023/10/23 11:38:48;;;;;;;1.23;0.70;;;13.00;99.90;;;;;;5075548;28;20447;-82
2023/10/23 11:41:15;;;;;;;0.93;0.83;;;13.00;99.90;;;;;;5075338;28;20476;-82
2023/10/23 11:43:42;;;;;;;1.13;1.10;;;13.30;99.90;;;;;;5075232;28;20461;-83
2023/10/23 11:46:08;;;;;;;0.87;0.60;;;13.20;99.90;;;;;;5075413;28;20444;-83
2023/10/23 11:48:35;;;;;;;1.27;0.70;;;13.20;99.90;;;;;;5075246;28;20441;-83
2023/10/23 11:51:02;;;;;;;0.97;0.77;;;13.00;99.90;;;;;;5074865;28;20476;-83
2023/10/23 11:53:33;;;;;;;2.40;0.87;;;13.00;99.90;;;;;;5074827;28;20505;-83
2023/10/23 11:55:59;;;;;;;5.07;1.20;;;12.90;99.90;;;;;;5075119;28;20441;-83
2023/10/23 11:58:27;;;;;;;1.17;0.73;;;12.70;99.90;;;;;;5074782;28;20433;-83
2023/10/23 12:00:54;;;;;;;1.17;1.00;;;12.80;99.90;;;;;;5074958;28;20949;-83
2023/10/23 12:03:20;;;;;;;2.40;0.80;;;12.70;99.90;;;;;;5074829;28;20473;-83
2023/10/23 12:05:47;;;;;;;1.10;0.77;;;12.60;99.90;;;;;;5074474;28;20793;-83
2023/10/23 12:08:14;;;;;;;0.73;0.73;;;12.60;99.90;;;;;;5074802;28;20489;-84
2023/10/23 12:10:42;;;;;;;3.50;1.47;;;12.40;99.90;;;;;;5074746;28;20437;-83
2023/10/23 12:13:09;;;;;;;1.00;0.90;;;12.30;99.90;;;;;;5074680;28;20461;-83
2023/10/23 12:15:36;;;;;;;3.13;0.93;;;12.20;99.90;;;;;;5074657;28;20559;-83
2023/10/23 12:18:04;;;;;;;1.10;0.80;;;12.10;99.90;;;;;;5074607;28;20445;-83
2023/10/23 12:20:31;;;;;;;0.50;0.50;;;12.20;99.90;;;;;;5074459;28;20500;-83
2023/10/23 12:22:58;;;;;;;0.70;0.70;;;12.20;99.90;;;;;;5074518;28;20853;-83
2023/10/23 12:25:24;;;;;;;0.60;0.60;;;12.20;99.90;;;;;;5074437;28;20448;-83
2023/10/23 12:27:53;;;;;;;1.33;1.17;;;12.30;99.90;;;;;;5074182;28;20805;-83
2023/10/23 12:30:19;;;;;;;0.77;0.77;;;12.30;99.90;;;;;;5073703;28;20524;-83
2023/10/23 12:32:46;;;;;;;0.67;0.67;;;12.40;99.90;;;;;;5073943;28;20839;-84
2023/10/23 12:35:14;;;;;;;1.50;0.80;;;12.50;99.90;;;;;;5082217;28;20433;-83
2023/10/23 12:37:41;;;;;;;0.80;0.80;;;12.50;99.90;;;;;;5076209;28;20937;-84
2023/10/23 12:40:10;;;;;;;9.30;1.03;;;12.60;99.90;;;;;;5074036;28;20491;-84
2023/10/23 12:42:39;;;;;;;0.97;0.87;;;12.70;99.90;;;;;;5073738;28;20948;-84
2023/10/23 12:45:09;;;;;;;0.90;0.90;;;12.80;99.90;;;;;;5073925;28;20507;-84
2023/10/23 12:47:37;;;;;;;1.73;0.60;;;12.70;99.90;;;;;;5074086;28;20441;-84
2023/10/23 12:50:04;;;;;;;1.70;1.30;;;12.70;99.90;;;;;;5073750;28;20477;-84
2023/10/23 12:52:31;;;;;;;2.00;0.80;;;12.70;99.90;;;;;;5074410;28;20850;-84
2023/10/23 12:54:58;;;;;;;0.70;0.70;;;12.80;99.90;;;;;;5073937;28;20826;-85